createdAt,value
2022-10-28T06:16:53.755Z,9.16
2022-10-28T07:13:05.569Z,10.89
2022-10-28T10:08:11.914Z,16.26
2022-10-28T10:18:19.035Z,15.83
2022-10-28T10:28:21.529Z,15.76
2022-10-28T10:38:23.245Z,15.73
2022-10-28T10:48:24.884Z,16.03
2022-10-28T11:10:06.343Z,17.03
2022-10-28T11:20:34.173Z,16.43
2022-10-28T13:40:50.455Z,14.96
2022-10-28T14:59:09.423Z,12.35
2022-10-28T15:09:48.308Z,12.07
2022-10-28T15:32:03.173Z,11.99
2022-10-28T15:49:26.633Z,11.80
2022-10-28T16:16:48.801Z,11.74
2022-10-28T16:27:22.599Z,11.68
2022-10-28T17:10:52.053Z,10.85
2022-10-28T17:53:46.504Z,10.24
2022-10-28T18:03:49.383Z,10.47
2022-10-28T18:13:54.173Z,10.60
2022-10-28T18:24:06.166Z,10.91
2022-10-28T18:34:08.440Z,11.03
2022-10-28T18:44:14.667Z,11.21
2022-10-28T18:54:16.361Z,11.16
2022-10-28T19:04:21.137Z,10.83
2022-10-28T19:14:24.170Z,10.70
2022-10-28T19:24:28.469Z,10.61
2022-10-28T19:34:36.850Z,10.67
2022-10-28T19:44:42.124Z,10.74
2022-10-28T19:54:46.261Z,10.73
2022-10-28T20:04:57.379Z,10.87
2022-10-28T20:15:00.164Z,11.10
2022-10-28T20:25:11.965Z,11.25
2022-10-28T20:47:11.363Z,11.31
2022-10-28T20:57:57.122Z,11.40
2022-10-28T21:08:08.197Z,11.36
2022-10-28T21:18:32.227Z,11.34
2022-10-28T21:39:07.198Z,11.60
2022-10-28T21:49:23.896Z,11.64
2022-10-28T21:59:34.117Z,11.61
2022-10-28T22:09:43.608Z,11.49
2022-10-28T22:20:02.582Z,11.42
2022-10-28T22:30:22.047Z,11.40
2022-10-28T23:01:48.854Z,10.75
2022-10-28T23:12:29.241Z,10.19
2022-10-28T23:22:37.283Z,9.91
2022-10-28T23:32:43.641Z,9.90
2022-10-28T23:42:50.692Z,9.87
2022-10-28T23:52:58.532Z,9.89
